createdAt,value
2023-03-27T00:00:13.233Z,100867.44
2023-03-27T00:02:42.064Z,100880.63
2023-03-27T00:05:11.483Z,100875.38
2023-03-27T00:07:41.630Z,100875.22
2023-03-27T00:10:10.444Z,100882.34
2023-03-27T00:12:39.184Z,100885.91
2023-03-27T00:15:09.905Z,100901.75
2023-03-27T00:17:38.171Z,100898.94
2023-03-27T00:20:07.355Z,100893.78
2023-03-27T00:22:36.269Z,100893.84
2023-03-27T00:25:05.228Z,100895.47
2023-03-27T00:27:33.195Z,100896.75
2023-03-27T00:30:01.429Z,100898.91
2023-03-27T00:32:30.825Z,100898.63
2023-03-27T00:34:58.978Z,100889.94
2023-03-27T00:37:27.251Z,100889.09
2023-03-27T00:39:56.037Z,100894.44
2023-03-27T00:42:25.232Z,100898.66
2023-03-27T00:44:54.556Z,100896.50
2023-03-27T00:47:31.717Z,100898.88
2023-03-27T00:50:04.825Z,100905.03
2023-03-27T00:52:33.726Z,100912.13
2023-03-27T00:55:09.124Z,100912.06
2023-03-27T00:57:38.559Z,100915.03
2023-03-27T01:00:14.326Z,100909.97
2023-03-27T01:02:48.314Z,100914.50
2023-03-27T01:05:21.680Z,100916.59
2023-03-27T01:07:52.057Z,100915.16
2023-03-27T01:10:41.938Z,100913.66
2023-03-27T01:13:22.989Z,100915.84
2023-03-27T01:15:56.808Z,100917.47
2023-03-27T01:18:37.750Z,100921.91
2023-03-27T01:21:56.083Z,100920.53
2023-03-27T01:25:03.447Z,100920.47
2023-03-27T01:28:04.215Z,100919.84
2023-03-27T01:30:36.532Z,100921.44
2023-03-27T01:33:45.630Z,100928.34
2023-03-27T01:36:51.598Z,100932.72
2023-03-27T01:39:48.760Z,100932.81
2023-03-27T01:42:23.421Z,100932.22
2023-03-27T01:44:59.269Z,100931.50
2023-03-27T01:47:38.999Z,100930.53
2023-03-27T01:50:16.771Z,100929.59
2023-03-27T01:52:50.343Z,100941.75
2023-03-27T01:55:24.864Z,100940.09
2023-03-27T01:58:00.792Z,100943.69
2023-03-27T02:00:51.323Z,100942.97
2023-03-27T02:03:23.785Z,100944.59
2023-03-27T02:05:56.510Z,100952.53
2023-03-27T02:08:31.234Z,100959.44
2023-03-27T02:11:01.494Z,100958.41
2023-03-27T02:13:35.604Z,100961.91
2023-03-27T02:16:06.618Z,100953.38
2023-03-27T02:18:38.076Z,100954.09
2023-03-27T02:21:06.921Z,100962.22
2023-03-27T02:23:38.202Z,100961.25
2023-03-27T02:26:10.754Z,100960.22
2023-03-27T02:28:47.362Z,100962.84
2023-03-27T02:31:57.559Z,100971.75
2023-03-27T02:34:46.830Z,100978.97
2023-03-27T02:37:21.801Z,100983.31
2023-03-27T02:39:55.945Z,100990.19
2023-03-27T02:42:32.838Z,100988.41
2023-03-27T02:45:08.707Z,100996.47
2023-03-27T02:47:41.336Z,100989.13
2023-03-27T02:50:13.698Z,100988.81
2023-03-27T02:52:45.576Z,100989.75
2023-03-27T02:55:19.581Z,100996.03
2023-03-27T02:57:54.341Z,100998.72
2023-03-27T03:00:25.952Z,101008.59
2023-03-27T03:03:02.853Z,101005.16
2023-03-27T03:05:31.459Z,101007.09
2023-03-27T03:08:01.090Z,101004.63
2023-03-27T03:10:29.095Z,101000.22
2023-03-27T03:12:58.618Z,101014.34
2023-03-27T03:15:26.958Z,101003.06
2023-03-27T03:17:55.496Z,101015.28
2023-03-27T03:20:23.972Z,101007.56
2023-03-27T03:22:51.962Z,101015.41
2023-03-27T03:25:20.355Z,101011.03
2023-03-27T03:27:48.704Z,101026.19
2023-03-27T03:30:18.373Z,101024.63
2023-03-27T03:32:47.597Z,101029.16
2023-03-27T03:35:15.707Z,101035.06
2023-03-27T03:37:51.179Z,101038.75
2023-03-27T03:40:20.745Z,101045.78
2023-03-27T03:42:51.836Z,101042.09
2023-03-27T03:45:21.338Z,101058.53
2023-03-27T03:47:49.260Z,101053.19
2023-03-27T03:50:17.646Z,101052.38
2023-03-27T03:52:47.186Z,101062.09
2023-03-27T03:55:16.056Z,101061.97
2023-03-27T03:57:48.274Z,101060.28
2023-03-27T04:00:18.783Z,101062.03
2023-03-27T04:02:52.242Z,101063.69
2023-03-27T04:05:20.677Z,101055.69
2023-03-27T04:07:49.954Z,101048.06
2023-03-27T04:10:18.971Z,101064.81
2023-03-27T04:12:50.730Z,101059.44
2023-03-27T04:15:18.925Z,101060.53
2023-03-27T04:17:49.010Z,101083.50
2023-03-27T04:20:17.298Z,101083.50
2023-03-27T04:22:47.598Z,101081.56
2023-03-27T04:25:17.936Z,101078.09
2023-03-27T04:27:46.255Z,101087.50
2023-03-27T04:30:15.974Z,101089.31
2023-03-27T04:32:44.372Z,101094.59
2023-03-27T04:35:14.294Z,101087.44
2023-03-27T04:37:43.366Z,101108.22
2023-03-27T04:40:14.491Z,101093.13
2023-03-27T04:42:45.162Z,101097.75
2023-03-27T04:45:17.369Z,101108.03
2023-03-27T04:47:46.588Z,101099.53
2023-03-27T04:50:16.916Z,101106.63
2023-03-27T04:52:48.428Z,101111.03
2023-03-27T04:55:18.311Z,101107.50
2023-03-27T04:57:47.530Z,101115.13
2023-03-27T05:00:19.818Z,101114.19
2023-03-27T05:02:48.813Z,101119.44
2023-03-27T05:05:18.509Z,101127.34
2023-03-27T05:07:46.948Z,101130.91
2023-03-27T05:10:15.979Z,101130.09
2023-03-27T05:12:44.858Z,101131.91
2023-03-27T05:15:16.218Z,101124.81
2023-03-27T05:17:45.757Z,101134.44
2023-03-27T05:20:17.064Z,101131.19
2023-03-27T05:22:46.834Z,101128.56
2023-03-27T05:25:15.356Z,101129.66
2023-03-27T05:27:47.571Z,101140.28
2023-03-27T05:30:16.750Z,101141.03
2023-03-27T05:32:49.081Z,101144.38
2023-03-27T05:35:18.335Z,101150.44
2023-03-27T05:37:50.403Z,101152.09
2023-03-27T05:40:22.284Z,101148.44
2023-03-27T05:42:51.399Z,101159.44
2023-03-27T05:45:19.641Z,101161.22
2023-03-27T05:47:49.203Z,101157.69
2023-03-27T05:50:18.166Z,101164.53
2023-03-27T05:52:46.632Z,101169.94
2023-03-27T05:55:16.074Z,101165.44
2023-03-27T05:57:44.198Z,101166.13
2023-03-27T06:00:15.986Z,101165.13
2023-03-27T06:02:45.055Z,101164.06
2023-03-27T06:05:15.320Z,101179.75
2023-03-27T06:07:43.741Z,101173.56
2023-03-27T06:10:14.495Z,101178.94
2023-03-27T06:12:45.262Z,101177.69
2023-03-27T06:15:15.456Z,101180.16
2023-03-27T06:17:48.357Z,101181.72
2023-03-27T06:20:16.348Z,101178.22
2023-03-27T06:22:46.899Z,101182.56
2023-03-27T06:25:15.524Z,101199.94
2023-03-27T06:27:45.599Z,101192.66
2023-03-27T06:30:17.387Z,101188.19
2023-03-27T06:32:46.836Z,101208.97
2023-03-27T06:35:15.116Z,101195.09
2023-03-27T06:37:48.294Z,101208.63
2023-03-27T06:40:22.836Z,101205.16
2023-03-27T06:42:54.540Z,101212.78
2023-03-27T06:45:23.302Z,101210.94
2023-03-27T06:47:54.769Z,101217.63
2023-03-27T06:50:26.093Z,101210.47
2023-03-27T06:52:55.308Z,101225.22
2023-03-27T06:55:26.424Z,101234.44
2023-03-27T06:57:58.282Z,101261.03
2023-03-27T07:00:29.066Z,101249.28
2023-03-27T07:02:57.924Z,101263.16
2023-03-27T07:05:27.501Z,101263.66
2023-03-27T07:07:57.507Z,101261.81
2023-03-27T07:10:27.290Z,101263.47
2023-03-27T07:12:56.604Z,101270.53
2023-03-27T07:15:26.364Z,101267.00
2023-03-27T07:17:55.474Z,101274.72
2023-03-27T07:20:25.103Z,101281.22
2023-03-27T07:22:54.493Z,101284.16
2023-03-27T07:25:24.092Z,101290.97
2023-03-27T07:27:53.015Z,101283.22
2023-03-27T07:30:22.995Z,101280.47
2023-03-27T07:32:51.583Z,101279.03
2023-03-27T07:35:20.007Z,101271.03
2023-03-27T07:37:50.623Z,101267.13
2023-03-27T07:40:29.386Z,101259.66
2023-03-27T07:43:01.703Z,101257.63
2023-03-27T07:45:31.607Z,101261.94
2023-03-27T07:48:06.808Z,101252.00
2023-03-27T07:50:35.976Z,101256.28
2023-03-27T07:53:04.647Z,101255.06
2023-03-27T07:55:32.511Z,101262.72
2023-03-27T07:58:02.932Z,101255.53
2023-03-27T08:00:35.306Z,101258.03
2023-03-27T08:03:08.263Z,101266.06
2023-03-27T08:05:36.474Z,101271.50
2023-03-27T08:08:05.018Z,101268.56
2023-03-27T08:10:36.515Z,101271.59
2023-03-27T08:13:04.957Z,101269.91
2023-03-27T08:15:34.339Z,101269.69
2023-03-27T08:18:02.652Z,101273.75
2023-03-27T08:20:30.826Z,101268.41
2023-03-27T08:23:00.689Z,101264.34
2023-03-27T08:25:29.906Z,101277.13
2023-03-27T08:27:57.838Z,101268.28
2023-03-27T08:30:26.272Z,101277.19
2023-03-27T08:32:56.056Z,101277.50
2023-03-27T08:35:24.416Z,101282.94
2023-03-27T08:37:52.745Z,101288.25
2023-03-27T08:40:26.394Z,101279.59
2023-03-27T08:42:58.490Z,101294.91
2023-03-27T08:45:30.756Z,101303.03
2023-03-27T08:48:07.309Z,101298.34
2023-03-27T08:50:42.453Z,101314.84
2023-03-27T08:53:22.819Z,101311.13
2023-03-27T08:55:51.005Z,101329.63
2023-03-27T08:58:21.511Z,101326.47
2023-03-27T09:00:56.029Z,101324.41
2023-03-27T09:03:29.897Z,101335.09
2023-03-27T09:06:02.017Z,101315.31
2023-03-27T09:08:43.699Z,101312.44
2023-03-27T09:11:23.360Z,101314.53
2023-03-27T09:13:52.743Z,101326.47
2023-03-27T09:16:24.581Z,101327.41
2023-03-27T09:19:01.101Z,101322.56
2023-03-27T09:21:36.496Z,101323.88
2023-03-27T09:24:11.959Z,101329.41
2023-03-27T09:26:40.001Z,101324.06
2023-03-27T09:29:22.249Z,101319.25
2023-03-27T09:31:52.352Z,101340.34
2023-03-27T09:34:25.278Z,101338.16
2023-03-27T09:36:54.478Z,101335.25
2023-03-27T09:39:29.329Z,101335.84
2023-03-27T09:42:07.288Z,101334.91
2023-03-27T09:44:40.201Z,101343.53
2023-03-27T09:47:15.454Z,101340.78
2023-03-27T09:49:49.850Z,101352.63
2023-03-27T09:52:36.938Z,101343.84
2023-03-27T09:55:24.801Z,101346.34
2023-03-27T09:57:58.809Z,101351.63
2023-03-27T10:00:30.777Z,101345.84
2023-03-27T10:03:05.926Z,101356.72
2023-03-27T10:05:37.169Z,101343.22
2023-03-27T10:08:28.791Z,101355.41
2023-03-27T10:10:58.293Z,101341.53
2023-03-27T10:13:29.394Z,101335.66
2023-03-27T10:16:01.048Z,101341.47
2023-03-27T10:18:31.893Z,101337.00
2023-03-27T10:21:07.707Z,101348.16
2023-03-27T10:23:43.171Z,101363.91
2023-03-27T10:26:15.094Z,101364.03
2023-03-27T10:28:49.241Z,101374.47
2023-03-27T10:31:32.547Z,101377.31
2023-03-27T10:34:04.406Z,101384.69
2023-03-27T10:36:36.704Z,101387.94
2023-03-27T10:39:11.776Z,101408.22
2023-03-27T10:41:41.074Z,101438.19
2023-03-27T10:44:17.964Z,101477.69
2023-03-27T10:46:46.806Z,101499.06
2023-03-27T10:49:25.671Z,101513.28
2023-03-27T10:52:05.771Z,101522.31
2023-03-27T10:54:40.616Z,101501.13
2023-03-27T10:57:13.982Z,101485.81
2023-03-27T10:59:48.950Z,101474.75
2023-03-27T11:02:20.762Z,101466.66
2023-03-27T11:04:53.137Z,101449.66
2023-03-27T11:07:28.665Z,101453.38
2023-03-27T11:10:03.169Z,101457.16
2023-03-27T11:12:33.951Z,101453.94
2023-03-27T11:15:07.668Z,101458.53
2023-03-27T11:17:42.563Z,101453.88
2023-03-27T11:20:22.473Z,101455.72
2023-03-27T11:22:59.420Z,101454.56
2023-03-27T11:25:37.410Z,101459.66
2023-03-27T11:28:19.701Z,101451.25
2023-03-27T11:30:52.344Z,101448.84
2023-03-27T11:33:46.673Z,101453.66
2023-03-27T11:36:31.521Z,101456.75
2023-03-27T11:39:13.749Z,101450.56
2023-03-27T11:41:42.623Z,101452.44
2023-03-27T11:44:11.529Z,101453.09
2023-03-27T11:46:58.012Z,101456.59
2023-03-27T11:49:45.639Z,101459.72
2023-03-27T11:52:25.940Z,101454.88
2023-03-27T11:55:09.087Z,101484.59
2023-03-27T11:57:53.914Z,101491.13
2023-03-27T12:00:32.107Z,101499.22
2023-03-27T12:03:36.860Z,101498.34
2023-03-27T12:06:19.145Z,101486.25
2023-03-27T12:09:03.142Z,101487.91
2023-03-27T12:11:33.287Z,101481.09
2023-03-27T12:14:41.083Z,101470.66
2023-03-27T12:17:51.646Z,101476.31
2023-03-27T12:20:58.884Z,101468.59
2023-03-27T12:23:46.703Z,101466.66
2023-03-27T12:26:34.149Z,101466.75
2023-03-27T12:29:23.708Z,101466.75
2023-03-27T12:32:09.518Z,101464.09
2023-03-27T12:34:53.280Z,101463.66
2023-03-27T12:37:25.651Z,101456.06
2023-03-27T12:39:55.435Z,101448.72
2023-03-27T12:42:44.330Z,101447.72
2023-03-27T12:45:19.614Z,101440.38
2023-03-27T12:48:09.553Z,101443.63
2023-03-27T12:50:45.396Z,101439.41
2023-03-27T12:53:21.911Z,101438.63
2023-03-27T12:55:50.192Z,101452.19
2023-03-27T12:58:38.530Z,101450.63
2023-03-27T13:01:11.473Z,101465.97
2023-03-27T13:04:08.246Z,101447.81
2023-03-27T13:06:51.017Z,101448.69
2023-03-27T13:09:35.199Z,101449.94
2023-03-27T13:12:17.450Z,101453.50
2023-03-27T13:15:07.579Z,101461.00
2023-03-27T13:17:55.984Z,101456.94
2023-03-27T13:20:37.446Z,101471.13
2023-03-27T13:23:21.063Z,101467.50
2023-03-27T13:26:05.385Z,101465.78
2023-03-27T13:28:37.685Z,101471.84
2023-03-27T13:31:09.465Z,101468.47
2023-03-27T13:33:46.062Z,101463.06
2023-03-27T13:36:20.146Z,101462.66
2023-03-27T13:39:21.410Z,101461.09
2023-03-27T13:42:08.197Z,101467.28
2023-03-27T13:44:45.366Z,101449.22
2023-03-27T13:47:52.668Z,101443.91
2023-03-27T13:50:44.490Z,101449.53
2023-03-27T13:53:29.778Z,101442.56
2023-03-27T13:56:11.118Z,101451.25
2023-03-27T13:59:15.524Z,101435.00
2023-03-27T14:01:58.156Z,101445.78
2023-03-27T14:04:39.956Z,101449.75
2023-03-27T14:07:55.744Z,101441.13
2023-03-27T14:10:40.676Z,101447.72
2023-03-27T14:13:25.827Z,101443.13
2023-03-27T14:16:23.103Z,101434.13
2023-03-27T14:19:18.387Z,101445.44
2023-03-27T14:21:57.632Z,101445.09
2023-03-27T14:24:35.230Z,101480.47
2023-03-27T14:27:07.236Z,101484.53
2023-03-27T14:29:35.983Z,101466.50
2023-03-27T14:32:06.558Z,101474.47
2023-03-27T14:34:47.260Z,101474.16
2023-03-27T14:37:37.376Z,101470.56
2023-03-27T14:40:22.849Z,101478.19
2023-03-27T14:42:52.952Z,101499.28
2023-03-27T14:45:23.880Z,101501.38
2023-03-27T14:47:58.119Z,101515.50
2023-03-27T14:50:27.694Z,101506.81
2023-03-27T14:52:57.727Z,101486.03
2023-03-27T14:55:30.283Z,101487.09
2023-03-27T14:58:10.882Z,101485.47
2023-03-27T15:00:41.686Z,101478.16
2023-03-27T15:03:14.713Z,101486.94
2023-03-27T15:06:01.596Z,101495.50
2023-03-27T15:08:34.029Z,101486.53
2023-03-27T15:11:04.489Z,101497.88
2023-03-27T15:13:37.459Z,101488.31
2023-03-27T15:16:07.800Z,101483.41
2023-03-27T15:18:39.522Z,101493.66
2023-03-27T15:21:17.091Z,101494.38
2023-03-27T15:23:54.168Z,101508.13
2023-03-27T15:26:27.049Z,101498.91
2023-03-27T15:29:04.243Z,101500.06
2023-03-27T15:31:34.160Z,101498.56
2023-03-27T15:34:06.231Z,101493.75
2023-03-27T15:36:38.446Z,101505.09
2023-03-27T15:39:11.545Z,101513.75
2023-03-27T15:41:44.070Z,101499.94
2023-03-27T15:44:18.286Z,101516.44
2023-03-27T15:46:51.486Z,101520.69
2023-03-27T15:49:29.045Z,101508.94
2023-03-27T15:51:58.683Z,101519.59
2023-03-27T15:54:29.924Z,101537.59
2023-03-27T15:57:09.392Z,101525.03
2023-03-27T15:59:52.368Z,101516.53
2023-03-27T16:02:23.725Z,101514.81
2023-03-27T16:04:55.047Z,101521.50
2023-03-27T16:07:26.073Z,101521.69
2023-03-27T16:09:57.400Z,101517.56
2023-03-27T16:12:30.964Z,101529.38
2023-03-27T16:15:06.481Z,101523.13
2023-03-27T16:17:41.435Z,101519.31
2023-03-27T16:20:35.382Z,101506.81
2023-03-27T16:23:04.284Z,101511.09
2023-03-27T16:25:32.479Z,101521.56
2023-03-27T16:28:01.071Z,101518.81
2023-03-27T16:30:35.733Z,101516.25
2023-03-27T16:33:06.117Z,101524.97
2023-03-27T16:35:34.228Z,101515.00
2023-03-27T16:38:03.167Z,101511.25
2023-03-27T16:40:31.658Z,101517.09
2023-03-27T16:43:00.195Z,101526.06
2023-03-27T16:45:28.272Z,101524.88
2023-03-27T16:47:57.682Z,101535.94
2023-03-27T16:50:29.112Z,101523.72
2023-03-27T16:52:57.153Z,101523.59
2023-03-27T16:55:25.657Z,101522.38
2023-03-27T16:57:54.530Z,101544.34
2023-03-27T17:00:23.014Z,101584.09
2023-03-27T17:02:50.999Z,101574.94
2023-03-27T17:05:20.606Z,101562.84
2023-03-27T17:07:48.656Z,101569.09
2023-03-27T17:10:17.364Z,101555.97
2023-03-27T17:12:45.705Z,101573.81
2023-03-27T17:15:15.121Z,101573.97
2023-03-27T17:17:43.183Z,101579.13
2023-03-27T17:20:12.261Z,101579.94
2023-03-27T17:22:41.670Z,101595.97
2023-03-27T17:25:10.799Z,101608.25
2023-03-27T17:27:39.364Z,101608.94
2023-03-27T17:30:08.552Z,101621.13
2023-03-27T17:32:36.953Z,101606.44
2023-03-27T17:35:09.073Z,101611.00
2023-03-27T17:37:37.198Z,101614.81
2023-03-27T17:40:10.795Z,101611.94
2023-03-27T17:42:38.938Z,101607.22
2023-03-27T17:45:07.579Z,101609.72
2023-03-27T17:47:36.116Z,101611.09
2023-03-27T17:50:05.430Z,101619.09
2023-03-27T17:52:33.329Z,101617.44
2023-03-27T17:55:01.578Z,101623.72
2023-03-27T17:57:30.948Z,101613.03
2023-03-27T17:59:59.041Z,101609.00
2023-03-27T18:02:27.145Z,101610.50
2023-03-27T18:04:55.447Z,101612.19
2023-03-27T18:07:24.466Z,101623.84
2023-03-27T18:09:53.086Z,101631.53
2023-03-27T18:12:21.158Z,101631.78
2023-03-27T18:14:50.519Z,101632.44
2023-03-27T18:17:21.079Z,101628.19
2023-03-27T18:19:49.180Z,101634.28
2023-03-27T18:22:17.927Z,101625.34
2023-03-27T18:24:46.093Z,101639.56
2023-03-27T18:27:14.009Z,101650.16
2023-03-27T18:29:42.274Z,101651.75
2023-03-27T18:32:11.668Z,101656.38
2023-03-27T18:34:39.557Z,101650.31
2023-03-27T18:37:07.797Z,101643.53
2023-03-27T18:39:37.632Z,101658.06
2023-03-27T18:42:06.182Z,101655.69
2023-03-27T18:44:34.162Z,101657.28
2023-03-27T18:47:02.409Z,101651.84
2023-03-27T18:49:32.501Z,101645.78
2023-03-27T18:52:00.686Z,101655.00
2023-03-27T18:54:29.202Z,101658.53
2023-03-27T18:56:57.348Z,101648.88
2023-03-27T18:59:25.413Z,101653.34
2023-03-27T19:01:53.618Z,101649.06
2023-03-27T19:04:23.247Z,101643.59
2023-03-27T19:06:52.551Z,101647.13
2023-03-27T19:09:25.538Z,101645.31
2023-03-27T19:12:03.168Z,101637.31
2023-03-27T19:14:31.708Z,101643.78
2023-03-27T19:16:59.996Z,101647.53
2023-03-27T19:19:27.986Z,101649.91
2023-03-27T19:21:57.628Z,101647.75
2023-03-27T19:24:25.595Z,101646.13
2023-03-27T19:26:53.573Z,101649.56
2023-03-27T19:29:21.625Z,101642.44
2023-03-27T19:31:49.550Z,101647.69
2023-03-27T19:34:17.609Z,101639.44
2023-03-27T19:36:45.683Z,101646.41
2023-03-27T19:39:15.676Z,101642.72
2023-03-27T19:41:44.354Z,101640.97
2023-03-27T19:44:14.754Z,101644.53
2023-03-27T19:46:42.858Z,101628.03
2023-03-27T19:49:11.220Z,101646.53
2023-03-27T19:51:39.308Z,101657.53
2023-03-27T19:54:07.264Z,101657.31
2023-03-27T19:56:36.959Z,101678.78
2023-03-27T19:59:09.820Z,101679.41
2023-03-27T20:01:44.269Z,101678.63
2023-03-27T20:04:12.746Z,101662.56
2023-03-27T20:06:40.860Z,101649.09
2023-03-27T20:09:09.209Z,101657.88
2023-03-27T20:11:41.894Z,101659.59
2023-03-27T20:14:12.756Z,101668.59
2023-03-27T20:16:40.798Z,101668.00
2023-03-27T20:19:09.461Z,101662.94
2023-03-27T20:21:39.080Z,101672.38
2023-03-27T20:24:09.903Z,101675.13
2023-03-27T20:26:40.750Z,101675.25
2023-03-27T20:29:09.483Z,101679.31
2023-03-27T20:31:37.876Z,101690.63
2023-03-27T20:34:07.261Z,101683.41
2023-03-27T20:36:39.138Z,101684.16
2023-03-27T20:39:08.928Z,101691.84
2023-03-27T20:41:39.325Z,101700.72
2023-03-27T20:44:14.897Z,101700.56
2023-03-27T20:46:52.621Z,101699.69
2023-03-27T20:51:59.864Z,101698.53
2023-03-27T20:54:29.953Z,101699.13
2023-03-27T20:56:59.424Z,101704.75
2023-03-27T20:59:27.495Z,101718.88
2023-03-27T21:01:55.496Z,101736.75
2023-03-27T21:04:26.156Z,101738.00
2023-03-27T21:06:54.905Z,101748.97
2023-03-27T21:09:25.976Z,101723.44
2023-03-27T21:11:55.149Z,101702.50
2023-03-27T21:14:26.366Z,101687.41
2023-03-27T21:16:54.728Z,101699.81
2023-03-27T21:19:30.543Z,101700.63
2023-03-27T21:21:58.650Z,101695.25
2023-03-27T21:24:28.254Z,101700.28
2023-03-27T21:26:56.334Z,101703.75
2023-03-27T21:29:26.361Z,101708.94
2023-03-27T21:31:54.359Z,101702.72
2023-03-27T21:34:27.756Z,101706.91
2023-03-27T21:36:56.207Z,101710.38
2023-03-27T21:39:24.373Z,101694.63
2023-03-27T21:41:53.780Z,101699.72
2023-03-27T21:44:21.707Z,101696.22
2023-03-27T21:46:53.429Z,101712.25
2023-03-27T21:49:21.502Z,101707.81
2023-03-27T21:51:49.426Z,101704.84
2023-03-27T21:54:18.401Z,101709.03
2023-03-27T21:56:46.624Z,101703.56
2023-03-27T21:59:14.534Z,101690.31
2023-03-27T22:01:42.662Z,101706.88
2023-03-27T22:04:12.456Z,101705.63
2023-03-27T22:06:40.486Z,101706.38
2023-03-27T22:09:08.394Z,101736.97
2023-03-27T22:11:36.436Z,101754.59
2023-03-27T22:14:07.557Z,101746.13
2023-03-27T22:16:35.921Z,101749.38
2023-03-27T22:19:04.187Z,101740.53
2023-03-27T22:21:33.676Z,101741.53
2023-03-27T22:24:01.767Z,101735.59
2023-03-27T22:26:32.835Z,101754.16
2023-03-27T22:29:01.100Z,101763.16
2023-03-27T22:31:29.646Z,101779.03
2023-03-27T22:33:57.905Z,101774.75
2023-03-27T22:36:25.828Z,101768.34
2023-03-27T22:38:55.528Z,101760.53
2023-03-27T22:41:23.871Z,101775.59
2023-03-27T22:43:51.860Z,101774.72
2023-03-27T22:46:21.738Z,101767.38
2023-03-27T22:48:54.868Z,101778.03
2023-03-27T22:51:23.620Z,101779.91
2023-03-27T22:53:52.106Z,101765.94
2023-03-27T22:56:21.597Z,101778.66
2023-03-27T22:58:49.779Z,101785.81
2023-03-27T23:01:18.150Z,101793.94
2023-03-27T23:03:46.294Z,101796.75
2023-03-27T23:06:19.954Z,101800.44
2023-03-27T23:08:49.352Z,101804.94
2023-03-27T23:11:23.708Z,101811.06
2023-03-27T23:13:52.046Z,101819.97
2023-03-27T23:16:21.252Z,101826.03
2023-03-27T23:18:49.758Z,101826.16
2023-03-27T23:21:18.056Z,101834.31
2023-03-27T23:23:46.475Z,101834.31
2023-03-27T23:26:18.253Z,101843.13
2023-03-27T23:28:47.954Z,101839.53
2023-03-27T23:31:17.773Z,101840.63
2023-03-27T23:33:47.934Z,101852.09
2023-03-27T23:36:17.942Z,101847.81
2023-03-27T23:38:47.506Z,101855.84
2023-03-27T23:41:17.051Z,101852.47
2023-03-27T23:43:45.433Z,101858.53
2023-03-27T23:46:15.590Z,101862.94
2023-03-27T23:48:44.791Z,101865.41
2023-03-27T23:51:14.496Z,101869.03
2023-03-27T23:53:42.649Z,101878.72
2023-03-27T23:56:11.327Z,101872.59
2023-03-27T23:58:39.532Z,101891.97
